sensor_id;sensor_type;location;lat;lon;timestamp;P1;durP1;ratioP1;P2;durP2;ratioP2
52962;SDS011;38827;53.024;6.596;2023-08-06T00:00:26;12.05;;;10.20;;
52962;SDS011;38827;53.024;6.596;2023-08-06T00:02:52;16.05;;;11.10;;
52962;SDS011;38827;53.024;6.596;2023-08-06T00:05:17;13.75;;;10.90;;
52962;SDS011;38827;53.024;6.596;2023-08-06T00:07:45;12.43;;;10.23;;
52962;SDS011;38827;53.024;6.596;2023-08-06T00:10:14;12.75;;;11.05;;
52962;SDS011;38827;53.024;6.596;2023-08-06T00:12:40;13.17;;;11.57;;
52962;SDS011;38827;53.024;6.596;2023-08-06T00:15:06;12.70;;;11.00;;
52962;SDS011;38827;53.024;6.596;2023-08-06T00:17:33;12.13;;;10.73;;
52962;SDS011;38827;53.024;6.596;2023-08-06T00:19:59;14.90;;;11.50;;
52962;SDS011;38827;53.024;6.596;2023-08-06T00:22:33;15.27;;;11.20;;
52962;SDS011;38827;53.024;6.596;2023-08-06T00:25:03;15.27;;;11.00;;
52962;SDS011;38827;53.024;6.596;2023-08-06T00:27:30;12.20;;;10.88;;
52962;SDS011;38827;53.024;6.596;2023-08-06T00:32:23;15.23;;;10.87;;
52962;SDS011;38827;53.024;6.596;2023-08-06T00:34:49;15.02;;;11.85;;
52962;SDS011;38827;53.024;6.596;2023-08-06T00:37:15;14.30;;;11.75;;
52962;SDS011;38827;53.024;6.596;2023-08-06T00:39:41;13.38;;;11.15;;
52962;SDS011;38827;53.024;6.596;2023-08-06T00:42:08;13.13;;;11.45;;
52962;SDS011;38827;53.024;6.596;2023-08-06T00:44:34;14.45;;;10.52;;
52962;SDS011;38827;53.024;6.596;2023-08-06T00:47:04;15.98;;;10.80;;
52962;SDS011;38827;53.024;6.596;2023-08-06T00:49:31;15.07;;;11.73;;
52962;SDS011;38827;53.024;6.596;2023-08-06T00:51:57;14.10;;;10.75;;
52962;SDS011;38827;53.024;6.596;2023-08-06T00:54:23;12.07;;;10.68;;
52962;SDS011;38827;53.024;6.596;2023-08-06T00:56:50;17.40;;;12.10;;
52962;SDS011;38827;53.024;6.596;2023-08-06T00:59:15;14.23;;;11.55;;
52962;SDS011;38827;53.024;6.596;2023-08-06T01:01:41;13.63;;;11.10;;
52962;SDS011;38827;53.024;6.596;2023-08-06T01:04:07;15.00;;;11.27;;
52962;SDS011;38827;53.024;6.596;2023-08-06T01:09:20;12.52;;;11.07;;
52962;SDS011;38827;53.024;6.596;2023-08-06T01:12:05;12.68;;;11.38;;
52962;SDS011;38827;53.024;6.596;2023-08-06T01:14:52;14.57;;;10.90;;
52962;SDS011;38827;53.024;6.596;2023-08-06T01:17:24;12.77;;;10.80;;
52962;SDS011;38827;53.024;6.596;2023-08-06T01:19:51;12.88;;;11.07;;
52962;SDS011;38827;53.024;6.596;2023-08-06T01:22:18;12.38;;;10.70;;
52962;SDS011;38827;53.024;6.596;2023-08-06T01:24:45;12.13;;;10.38;;
52962;SDS011;38827;53.024;6.596;2023-08-06T01:27:23;14.07;;;10.18;;
52962;SDS011;38827;53.024;6.596;2023-08-06T01:32:38;13.40;;;10.95;;
52962;SDS011;38827;53.024;6.596;2023-08-06T01:35:10;13.02;;;9.82;;
52962;SDS011;38827;53.024;6.596;2023-08-06T01:37:37;13.85;;;10.13;;
52962;SDS011;38827;53.024;6.596;2023-08-06T01:40:10;10.68;;;9.57;;
52962;SDS011;38827;53.024;6.596;2023-08-06T01:42:37;12.88;;;10.20;;
52962;SDS011;38827;53.024;6.596;2023-08-06T01:45:03;13.43;;;11.03;;
52962;SDS011;38827;53.024;6.596;2023-08-06T01:47:29;13.43;;;11.23;;
52962;SDS011;38827;53.024;6.596;2023-08-06T01:49:55;12.90;;;10.55;;
52962;SDS011;38827;53.024;6.596;2023-08-06T01:52:21;13.27;;;10.98;;
52962;SDS011;38827;53.024;6.596;2023-08-06T01:54:46;15.40;;;12.10;;
52962;SDS011;38827;53.024;6.596;2023-08-06T01:57:13;13.52;;;11.27;;
52962;SDS011;38827;53.024;6.596;2023-08-06T01:59:39;16.77;;;12.48;;
52962;SDS011;38827;53.024;6.596;2023-08-06T02:02:05;16.00;;;11.60;;
52962;SDS011;38827;53.024;6.596;2023-08-06T02:04:30;15.75;;;11.52;;
52962;SDS011;38827;53.024;6.596;2023-08-06T02:06:59;20.48;;;11.57;;
52962;SDS011;38827;53.024;6.596;2023-08-06T02:09:25;15.68;;;10.98;;
52962;SDS011;38827;53.024;6.596;2023-08-06T02:21:25;14.00;;;10.43;;
52962;SDS011;38827;53.024;6.596;2023-08-06T02:24:06;13.40;;;11.13;;
52962;SDS011;38827;53.024;6.596;2023-08-06T02:26:31;15.93;;;11.20;;
52962;SDS011;38827;53.024;6.596;2023-08-06T02:28:57;14.38;;;11.00;;
52962;SDS011;38827;53.024;6.596;2023-08-06T02:31:23;12.20;;;10.45;;
52962;SDS011;38827;53.024;6.596;2023-08-06T02:33:48;13.57;;;10.52;;
52962;SDS011;38827;53.024;6.596;2023-08-06T02:36:14;12.95;;;11.50;;
52962;SDS011;38827;53.024;6.596;2023-08-06T02:38:40;14.55;;;11.70;;
52962;SDS011;38827;53.024;6.596;2023-08-06T02:41:08;11.70;;;10.50;;
52962;SDS011;38827;53.024;6.596;2023-08-06T02:43:34;15.57;;;11.00;;
52962;SDS011;38827;53.024;6.596;2023-08-06T02:46:00;13.68;;;10.90;;
52962;SDS011;38827;53.024;6.596;2023-08-06T02:48:26;15.18;;;10.95;;
52962;SDS011;38827;53.024;6.596;2023-08-06T02:50:52;13.85;;;10.45;;
52962;SDS011;38827;53.024;6.596;2023-08-06T02:53:17;11.70;;;9.82;;
52962;SDS011;38827;53.024;6.596;2023-08-06T02:55:46;14.02;;;10.77;;
52962;SDS011;38827;53.024;6.596;2023-08-06T02:58:13;14.45;;;11.23;;
52962;SDS011;38827;53.024;6.596;2023-08-06T03:00:39;17.05;;;11.43;;
52962;SDS011;38827;53.024;6.596;2023-08-06T03:03:05;17.50;;;11.27;;
52962;SDS011;38827;53.024;6.596;2023-08-06T03:05:30;13.95;;;11.02;;
52962;SDS011;38827;53.024;6.596;2023-08-06T03:07:56;12.60;;;10.57;;
52962;SDS011;38827;53.024;6.596;2023-08-06T03:10:22;12.38;;;10.23;;
52962;SDS011;38827;53.024;6.596;2023-08-06T03:12:47;13.73;;;11.38;;
52962;SDS011;38827;53.024;6.596;2023-08-06T03:15:13;13.13;;;9.77;;
52962;SDS011;38827;53.024;6.596;2023-08-06T03:17:39;11.05;;;9.93;;
52962;SDS011;38827;53.024;6.596;2023-08-06T03:20:06;11.25;;;10.05;;
52962;SDS011;38827;53.024;6.596;2023-08-06T03:22:33;13.02;;;10.80;;
52962;SDS011;38827;53.024;6.596;2023-08-06T03:24:59;13.38;;;10.52;;
52962;SDS011;38827;53.024;6.596;2023-08-06T03:27:25;14.63;;;10.95;;
52962;SDS011;38827;53.024;6.596;2023-08-06T03:29:50;13.20;;;10.60;;
52962;SDS011;38827;53.024;6.596;2023-08-06T03:32:16;11.43;;;9.98;;
52962;SDS011;38827;53.024;6.596;2023-08-06T03:34:42;12.80;;;10.20;;
52962;SDS011;38827;53.024;6.596;2023-08-06T03:37:08;16.30;;;10.98;;
52962;SDS011;38827;53.024;6.596;2023-08-06T03:39:33;12.65;;;10.00;;
52962;SDS011;38827;53.024;6.596;2023-08-06T03:41:59;15.35;;;10.93;;
52962;SDS011;38827;53.024;6.596;2023-08-06T03:44:27;13.20;;;10.82;;
52962;SDS011;38827;53.024;6.596;2023-08-06T03:46:53;14.82;;;11.45;;
52962;SDS011;38827;53.024;6.596;2023-08-06T03:49:19;15.63;;;11.80;;
52962;SDS011;38827;53.024;6.596;2023-08-06T03:51:44;14.75;;;11.73;;
52962;SDS011;38827;53.024;6.596;2023-08-06T03:54:11;14.85;;;11.40;;
52962;SDS011;38827;53.024;6.596;2023-08-06T03:56:36;14.55;;;10.55;;
52962;SDS011;38827;53.024;6.596;2023-08-06T03:59:02;13.80;;;11.43;;
52962;SDS011;38827;53.024;6.596;2023-08-06T04:01:27;13.40;;;11.07;;
52962;SDS011;38827;53.024;6.596;2023-08-06T04:03:53;12.15;;;10.15;;
52962;SDS011;38827;53.024;6.596;2023-08-06T04:06:19;14.23;;;10.77;;
52962;SDS011;38827;53.024;6.596;2023-08-06T04:08:44;15.23;;;11.73;;
52962;SDS011;38827;53.024;6.596;2023-08-06T04:11:10;16.88;;;11.20;;
52962;SDS011;38827;53.024;6.596;2023-08-06T04:13:37;13.02;;;10.25;;
52962;SDS011;38827;53.024;6.596;2023-08-06T04:16:05;12.63;;;10.43;;
52962;SDS011;38827;53.024;6.596;2023-08-06T04:18:31;15.75;;;12.15;;
52962;SDS011;38827;53.024;6.596;2023-08-06T04:20:57;17.45;;;12.25;;
52962;SDS011;38827;53.024;6.596;2023-08-06T04:23:24;14.18;;;11.85;;
52962;SDS011;38827;53.024;6.596;2023-08-06T04:25:50;12.65;;;10.75;;
52962;SDS011;38827;53.024;6.596;2023-08-06T04:28:15;15.30;;;11.10;;
52962;SDS011;38827;53.024;6.596;2023-08-06T04:30:41;15.52;;;12.05;;
52962;SDS011;38827;53.024;6.596;2023-08-06T04:33:07;13.00;;;11.52;;
52962;SDS011;38827;53.024;6.596;2023-08-06T04:35:32;18.60;;;12.63;;
52962;SDS011;38827;53.024;6.596;2023-08-06T04:37:58;16.73;;;12.38;;
52962;SDS011;38827;53.024;6.596;2023-08-06T04:40:24;13.32;;;11.75;;
52962;SDS011;38827;53.024;6.596;2023-08-06T04:42:49;14.88;;;12.30;;
52962;SDS011;38827;53.024;6.596;2023-08-06T04:45:15;15.00;;;11.80;;
52962;SDS011;38827;53.024;6.596;2023-08-06T04:47:41;17.70;;;13.38;;
52962;SDS011;38827;53.024;6.596;2023-08-06T04:50:06;16.67;;;12.65;;
52962;SDS011;38827;53.024;6.596;2023-08-06T04:52:32;16.02;;;11.75;;
52962;SDS011;38827;53.024;6.596;2023-08-06T04:54:58;17.23;;;13.10;;
52962;SDS011;38827;53.024;6.596;2023-08-06T04:57:23;14.45;;;11.80;;
52962;SDS011;38827;53.024;6.596;2023-08-06T04:59:49;15.38;;;11.38;;
52962;SDS011;38827;53.024;6.596;2023-08-06T05:02:16;18.80;;;12.90;;
52962;SDS011;38827;53.024;6.596;2023-08-06T05:04:42;15.30;;;11.35;;
52962;SDS011;38827;53.024;6.596;2023-08-06T05:07:10;16.30;;;12.60;;
52962;SDS011;38827;53.024;6.596;2023-08-06T05:09:39;14.38;;;12.45;;
52962;SDS011;38827;53.024;6.596;2023-08-06T05:12:16;13.80;;;11.88;;
52962;SDS011;38827;53.024;6.596;2023-08-06T05:14:54;17.63;;;12.70;;
52962;SDS011;38827;53.024;6.596;2023-08-06T05:17:22;13.27;;;11.27;;
52962;SDS011;38827;53.024;6.596;2023-08-06T05:19:49;12.07;;;10.88;;
52962;SDS011;38827;53.024;6.596;2023-08-06T05:22:15;15.07;;;12.88;;
52962;SDS011;38827;53.024;6.596;2023-08-06T05:24:40;14.30;;;11.85;;
52962;SDS011;38827;53.024;6.596;2023-08-06T05:27:06;16.48;;;12.57;;
52962;SDS011;38827;53.024;6.596;2023-08-06T05:29:32;12.50;;;11.20;;
52962;SDS011;38827;53.024;6.596;2023-08-06T05:42:28;13.88;;;11.55;;
52962;SDS011;38827;53.024;6.596;2023-08-06T05:44:58;18.15;;;12.18;;
52962;SDS011;38827;53.024;6.596;2023-08-06T05:50:13;13.93;;;11.55;;
52962;SDS011;38827;53.024;6.596;2023-08-06T05:52:54;12.77;;;10.63;;
52962;SDS011;38827;53.024;6.596;2023-08-06T05:55:26;13.98;;;12.23;;
52962;SDS011;38827;53.024;6.596;2023-08-06T05:57:57;12.40;;;11.10;;
52962;SDS011;38827;53.024;6.596;2023-08-06T06:00:26;13.32;;;11.02;;
52962;SDS011;38827;53.024;6.596;2023-08-06T06:03:07;14.20;;;11.23;;
52962;SDS011;38827;53.024;6.596;2023-08-06T06:05:33;12.23;;;10.65;;
52962;SDS011;38827;53.024;6.596;2023-08-06T06:08:13;15.07;;;11.32;;
52962;SDS011;38827;53.024;6.596;2023-08-06T06:10:39;15.93;;;11.30;;
52962;SDS011;38827;53.024;6.596;2023-08-06T06:16:36;13.48;;;11.10;;
52962;SDS011;38827;53.024;6.596;2023-08-06T06:19:15;12.13;;;10.77;;
52962;SDS011;38827;53.024;6.596;2023-08-06T06:21:43;12.48;;;10.98;;
52962;SDS011;38827;53.024;6.596;2023-08-06T06:54:52;12.48;;;10.40;;
52962;SDS011;38827;53.024;6.596;2023-08-06T06:57:24;11.48;;;10.23;;
52962;SDS011;38827;53.024;6.596;2023-08-06T06:59:52;12.23;;;10.55;;
52962;SDS011;38827;53.024;6.596;2023-08-06T07:09:17;12.98;;;9.35;;
52962;SDS011;38827;53.024;6.596;2023-08-06T07:11:44;10.75;;;9.20;;
52962;SDS011;38827;53.024;6.596;2023-08-06T07:14:19;9.68;;;8.68;;
52962;SDS011;38827;53.024;6.596;2023-08-06T07:17:07;10.38;;;8.63;;
52962;SDS011;38827;53.024;6.596;2023-08-06T07:19:32;9.50;;;8.55;;
52962;SDS011;38827;53.024;6.596;2023-08-06T07:22:01;10.02;;;8.63;;
52962;SDS011;38827;53.024;6.596;2023-08-06T07:24:36;9.00;;;8.10;;
52962;SDS011;38827;53.024;6.596;2023-08-06T07:27:15;8.60;;;7.75;;
52962;SDS011;38827;53.024;6.596;2023-08-06T07:29:59;8.82;;;7.93;;
52962;SDS011;38827;53.024;6.596;2023-08-06T07:32:35;9.32;;;7.63;;
52962;SDS011;38827;53.024;6.596;2023-08-06T07:35:10;10.27;;;8.25;;
52962;SDS011;38827;53.024;6.596;2023-08-06T07:37:46;8.68;;;7.82;;
52962;SDS011;38827;53.024;6.596;2023-08-06T07:40:18;7.60;;;6.85;;
52962;SDS011;38827;53.024;6.596;2023-08-06T07:42:50;7.63;;;6.75;;
52962;SDS011;38827;53.024;6.596;2023-08-06T07:48:59;6.68;;;6.07;;
52962;SDS011;38827;53.024;6.596;2023-08-06T08:12:18;5.50;;;5.00;;
52962;SDS011;38827;53.024;6.596;2023-08-06T08:14:52;6.30;;;5.25;;
52962;SDS011;38827;53.024;6.596;2023-08-06T08:17:18;6.60;;;5.65;;
52962;SDS011;38827;53.024;6.596;2023-08-06T08:19:44;6.03;;;5.20;;
52962;SDS011;38827;53.024;6.596;2023-08-06T08:22:10;7.23;;;5.30;;
52962;SDS011;38827;53.024;6.596;2023-08-06T08:24:35;7.00;;;5.47;;
52962;SDS011;38827;53.024;6.596;2023-08-06T08:27:01;8.53;;;5.27;;
52962;SDS011;38827;53.024;6.596;2023-08-06T08:29:27;6.27;;;5.03;;
52962;SDS011;38827;53.024;6.596;2023-08-06T08:31:52;6.03;;;5.40;;
52962;SDS011;38827;53.024;6.596;2023-08-06T08:34:18;5.47;;;4.93;;
52962;SDS011;38827;53.024;6.596;2023-08-06T08:36:44;5.83;;;4.87;;
52962;SDS011;38827;53.024;6.596;2023-08-06T08:39:15;7.30;;;4.70;;
52962;SDS011;38827;53.024;6.596;2023-08-06T08:41:41;5.50;;;4.77;;
52962;SDS011;38827;53.024;6.596;2023-08-06T08:44:10;6.07;;;4.27;;
52962;SDS011;38827;53.024;6.596;2023-08-06T08:46:41;4.68;;;4.05;;
52962;SDS011;38827;53.024;6.596;2023-08-06T08:57:49;6.13;;;4.22;;
52962;SDS011;38827;53.024;6.596;2023-08-06T09:00:21;5.77;;;3.90;;
52962;SDS011;38827;53.024;6.596;2023-08-06T09:16:47;3.40;;;3.00;;
52962;SDS011;38827;53.024;6.596;2023-08-06T09:19:16;6.00;;;3.28;;
52962;SDS011;38827;53.024;6.596;2023-08-06T09:21:45;3.78;;;3.00;;
52962;SDS011;38827;53.024;6.596;2023-08-06T09:24:14;5.20;;;2.60;;
52962;SDS011;38827;53.024;6.596;2023-08-06T09:26:41;3.90;;;2.78;;
52962;SDS011;38827;53.024;6.596;2023-08-06T09:39:40;2.45;;;1.70;;
52962;SDS011;38827;53.024;6.596;2023-08-06T09:42:08;2.63;;;1.83;;
52962;SDS011;38827;53.024;6.596;2023-08-06T09:44:34;2.07;;;1.83;;
52962;SDS011;38827;53.024;6.596;2023-08-06T09:47:01;4.40;;;1.70;;
52962;SDS011;38827;53.024;6.596;2023-08-06T09:49:29;2.13;;;1.55;;
52962;SDS011;38827;53.024;6.596;2023-08-06T09:52:11;3.85;;;1.70;;
52962;SDS011;38827;53.024;6.596;2023-08-06T09:54:38;1.77;;;1.60;;
52962;SDS011;38827;53.024;6.596;2023-08-06T09:57:04;2.07;;;1.63;;
52962;SDS011;38827;53.024;6.596;2023-08-06T10:01:58;3.40;;;1.80;;
52962;SDS011;38827;53.024;6.596;2023-08-06T10:04:24;1.63;;;1.48;;
52962;SDS011;38827;53.024;6.596;2023-08-06T10:06:50;1.60;;;1.50;;
52962;SDS011;38827;53.024;6.596;2023-08-06T10:09:17;2.92;;;1.40;;
52962;SDS011;38827;53.024;6.596;2023-08-06T10:11:44;2.22;;;1.73;;
52962;SDS011;38827;53.024;6.596;2023-08-06T10:14:16;1.70;;;1.60;;
52962;SDS011;38827;53.024;6.596;2023-08-06T10:16:46;1.45;;;1.33;;
52962;SDS011;38827;53.024;6.596;2023-08-06T10:19:13;1.83;;;1.40;;
52962;SDS011;38827;53.024;6.596;2023-08-06T10:21:40;3.33;;;1.50;;
52962;SDS011;38827;53.024;6.596;2023-08-06T10:24:06;6.03;;;1.25;;
52962;SDS011;38827;53.024;6.596;2023-08-06T10:26:37;2.42;;;1.08;;
52962;SDS011;38827;53.024;6.596;2023-08-06T10:32:03;2.55;;;1.20;;
52962;SDS011;38827;53.024;6.596;2023-08-06T10:37:23;1.85;;;1.40;;
52962;SDS011;38827;53.024;6.596;2023-08-06T10:39:59;2.15;;;1.35;;
52962;SDS011;38827;53.024;6.596;2023-08-06T10:42:34;2.53;;;1.40;;
52962;SDS011;38827;53.024;6.596;2023-08-06T10:45:16;2.40;;;1.40;;
52962;SDS011;38827;53.024;6.596;2023-08-06T10:47:43;3.33;;;1.63;;
52962;SDS011;38827;53.024;6.596;2023-08-06T10:50:14;4.47;;;1.48;;
52962;SDS011;38827;53.024;6.596;2023-08-06T10:52:45;2.60;;;1.40;;
52962;SDS011;38827;53.024;6.596;2023-08-06T10:55:12;2.60;;;1.30;;
52962;SDS011;38827;53.024;6.596;2023-08-06T10:57:47;2.30;;;1.20;;
52962;SDS011;38827;53.024;6.596;2023-08-06T11:00:13;5.30;;;1.60;;
52962;SDS011;38827;53.024;6.596;2023-08-06T11:02:39;2.95;;;1.50;;
52962;SDS011;38827;53.024;6.596;2023-08-06T11:05:05;2.17;;;1.40;;
52962;SDS011;38827;53.024;6.596;2023-08-06T11:07:32;1.63;;;1.35;;
52962;SDS011;38827;53.024;6.596;2023-08-06T11:10:01;2.37;;;1.30;;
52962;SDS011;38827;53.024;6.596;2023-08-06T11:12:28;1.90;;;1.42;;
52962;SDS011;38827;53.024;6.596;2023-08-06T11:14:54;2.87;;;1.40;;
52962;SDS011;38827;53.024;6.596;2023-08-06T11:19:46;2.95;;;1.35;;
52962;SDS011;38827;53.024;6.596;2023-08-06T11:24:59;1.27;;;1.10;;
52962;SDS011;38827;53.024;6.596;2023-08-06T11:27:27;2.60;;;1.50;;
52962;SDS011;38827;53.024;6.596;2023-08-06T11:29:54;2.67;;;1.38;;
52962;SDS011;38827;53.024;6.596;2023-08-06T11:32:19;2.27;;;1.40;;
52962;SDS011;38827;53.024;6.596;2023-08-06T11:34:45;2.60;;;1.40;;
52962;SDS011;38827;53.024;6.596;2023-08-06T11:37:11;1.73;;;1.20;;
52962;SDS011;38827;53.024;6.596;2023-08-06T11:39:37;3.40;;;1.30;;
52962;SDS011;38827;53.024;6.596;2023-08-06T11:44:33;1.48;;;1.20;;
52962;SDS011;38827;53.024;6.596;2023-08-06T11:47:01;2.65;;;1.30;;
52962;SDS011;38827;53.024;6.596;2023-08-06T11:49:49;2.03;;;1.45;;
52962;SDS011;38827;53.024;6.596;2023-08-06T11:52:24;1.90;;;1.60;;
52962;SDS011;38827;53.024;6.596;2023-08-06T11:57:47;1.52;;;1.20;;
52962;SDS011;38827;53.024;6.596;2023-08-06T12:00:19;2.93;;;1.50;;
52962;SDS011;38827;53.024;6.596;2023-08-06T12:02:48;2.58;;;1.20;;
52962;SDS011;38827;53.024;6.596;2023-08-06T12:05:16;3.55;;;1.58;;
52962;SDS011;38827;53.024;6.596;2023-08-06T12:07:44;2.88;;;1.27;;
52962;SDS011;38827;53.024;6.596;2023-08-06T12:10:12;2.28;;;1.10;;
52962;SDS011;38827;53.024;6.596;2023-08-06T12:12:38;3.75;;;1.25;;
52962;SDS011;38827;53.024;6.596;2023-08-06T12:15:04;2.07;;;1.40;;
52962;SDS011;38827;53.024;6.596;2023-08-06T12:17:31;1.40;;;1.30;;
52962;SDS011;38827;53.024;6.596;2023-08-06T12:19:57;2.10;;;1.33;;
52962;SDS011;38827;53.024;6.596;2023-08-06T12:22:24;2.00;;;1.40;;
52962;SDS011;38827;53.024;6.596;2023-08-06T12:24:50;3.13;;;1.20;;
52962;SDS011;38827;53.024;6.596;2023-08-06T12:27:16;2.47;;;1.17;;
52962;SDS011;38827;53.024;6.596;2023-08-06T12:29:42;2.03;;;1.40;;
52962;SDS011;38827;53.024;6.596;2023-08-06T12:32:13;2.28;;;1.17;;
52962;SDS011;38827;53.024;6.596;2023-08-06T12:34:39;2.90;;;1.50;;
52962;SDS011;38827;53.024;6.596;2023-08-06T12:37:06;1.50;;;1.10;;
52962;SDS011;38827;53.024;6.596;2023-08-06T12:39:32;2.08;;;1.30;;
52962;SDS011;38827;53.024;6.596;2023-08-06T12:41:59;1.13;;;1.02;;
52962;SDS011;38827;53.024;6.596;2023-08-06T12:44:26;1.50;;;1.13;;
52962;SDS011;38827;53.024;6.596;2023-08-06T12:57:32;1.83;;;1.15;;
52962;SDS011;38827;53.024;6.596;2023-08-06T13:00:11;2.08;;;1.20;;
52962;SDS011;38827;53.024;6.596;2023-08-06T13:02:37;1.63;;;1.20;;
52962;SDS011;38827;53.024;6.596;2023-08-06T13:05:03;1.50;;;1.30;;
52962;SDS011;38827;53.024;6.596;2023-08-06T13:07:32;1.60;;;1.20;;
52962;SDS011;38827;53.024;6.596;2023-08-06T13:09:58;2.83;;;1.17;;
52962;SDS011;38827;53.024;6.596;2023-08-06T13:12:23;1.67;;;1.20;;
52962;SDS011;38827;53.024;6.596;2023-08-06T13:14:49;1.63;;;1.13;;
52962;SDS011;38827;53.024;6.596;2023-08-06T13:17:15;1.20;;;1.10;;
52962;SDS011;38827;53.024;6.596;2023-08-06T13:19:40;2.70;;;1.30;;
52962;SDS011;38827;53.024;6.596;2023-08-06T13:22:06;1.23;;;1.10;;
52962;SDS011;38827;53.024;6.596;2023-08-06T13:24:33;1.58;;;1.40;;
52962;SDS011;38827;53.024;6.596;2023-08-06T13:27:00;1.80;;;1.30;;
52962;SDS011;38827;53.024;6.596;2023-08-06T13:29:26;1.73;;;1.45;;
52962;SDS011;38827;53.024;6.596;2023-08-06T13:31:52;2.00;;;1.50;;
52962;SDS011;38827;53.024;6.596;2023-08-06T13:34:18;1.92;;;1.77;;
52962;SDS011;38827;53.024;6.596;2023-08-06T13:36:44;3.03;;;2.10;;
52962;SDS011;38827;53.024;6.596;2023-08-06T13:39:10;4.60;;;2.37;;
52962;SDS011;38827;53.024;6.596;2023-08-06T13:41:37;2.40;;;1.83;;
52962;SDS011;38827;53.024;6.596;2023-08-06T13:44:04;2.85;;;2.50;;
52962;SDS011;38827;53.024;6.596;2023-08-06T13:46:30;3.37;;;1.80;;
52962;SDS011;38827;53.024;6.596;2023-08-06T14:04:06;1.85;;;1.48;;
52962;SDS011;38827;53.024;6.596;2023-08-06T14:15:50;2.90;;;1.42;;
52962;SDS011;38827;53.024;6.596;2023-08-06T14:18:16;1.80;;;1.17;;
52962;SDS011;38827;53.024;6.596;2023-08-06T14:20:42;2.20;;;1.30;;
52962;SDS011;38827;53.024;6.596;2023-08-06T14:23:08;1.45;;;1.35;;
52962;SDS011;38827;53.024;6.596;2023-08-06T14:25:34;2.23;;;1.30;;
52962;SDS011;38827;53.024;6.596;2023-08-06T14:28:00;2.50;;;1.43;;
52962;SDS011;38827;53.024;6.596;2023-08-06T14:30:26;2.33;;;1.30;;
52962;SDS011;38827;53.024;6.596;2023-08-06T14:32:52;3.17;;;1.60;;
52962;SDS011;38827;53.024;6.596;2023-08-06T14:35:17;3.47;;;1.50;;
52962;SDS011;38827;53.024;6.596;2023-08-06T14:37:43;2.17;;;1.63;;
52962;SDS011;38827;53.024;6.596;2023-08-06T14:40:10;2.58;;;1.95;;
52962;SDS011;38827;53.024;6.596;2023-08-06T14:42:37;3.50;;;1.70;;
52962;SDS011;38827;53.024;6.596;2023-08-06T14:45:12;5.03;;;2.95;;
52962;SDS011;38827;53.024;6.596;2023-08-06T14:47:39;1.98;;;1.50;;
52962;SDS011;38827;53.024;6.596;2023-08-06T14:50:06;4.67;;;1.87;;
52962;SDS011;38827;53.024;6.596;2023-08-06T14:52:32;2.88;;;1.70;;
52962;SDS011;38827;53.024;6.596;2023-08-06T14:55:00;7.18;;;5.15;;
52962;SDS011;38827;53.024;6.596;2023-08-06T14:57:27;2.33;;;1.75;;
52962;SDS011;38827;53.024;6.596;2023-08-06T14:59:53;4.83;;;2.80;;
52962;SDS011;38827;53.024;6.596;2023-08-06T15:02:20;3.22;;;2.10;;
52962;SDS011;38827;53.024;6.596;2023-08-06T15:04:45;4.00;;;1.47;;
52962;SDS011;38827;53.024;6.596;2023-08-06T15:07:12;7.00;;;4.10;;
52962;SDS011;38827;53.024;6.596;2023-08-06T15:09:37;2.50;;;1.93;;
52962;SDS011;38827;53.024;6.596;2023-08-06T15:12:05;2.40;;;1.63;;
52962;SDS011;38827;53.024;6.596;2023-08-06T15:14:31;2.25;;;1.75;;
52962;SDS011;38827;53.024;6.596;2023-08-06T15:25:42;3.15;;;2.20;;
52962;SDS011;38827;53.024;6.596;2023-08-06T15:28:07;3.85;;;1.75;;
52962;SDS011;38827;53.024;6.596;2023-08-06T15:30:35;2.27;;;1.30;;
52962;SDS011;38827;53.024;6.596;2023-08-06T15:33:01;2.33;;;1.60;;
52962;SDS011;38827;53.024;6.596;2023-08-06T15:35:27;2.00;;;1.50;;
52962;SDS011;38827;53.024;6.596;2023-08-06T15:37:53;3.97;;;1.63;;
52962;SDS011;38827;53.024;6.596;2023-08-06T15:40:18;1.23;;;1.13;;
52962;SDS011;38827;53.024;6.596;2023-08-06T15:42:44;1.90;;;1.37;;
52962;SDS011;38827;53.024;6.596;2023-08-06T15:45:10;1.73;;;1.27;;
52962;SDS011;38827;53.024;6.596;2023-08-06T15:47:35;2.63;;;1.77;;
52962;SDS011;38827;53.024;6.596;2023-08-06T15:50:08;1.77;;;1.30;;
52962;SDS011;38827;53.024;6.596;2023-08-06T15:52:34;2.05;;;1.65;;
52962;SDS011;38827;53.024;6.596;2023-08-06T15:55:01;4.60;;;1.30;;
52962;SDS011;38827;53.024;6.596;2023-08-06T15:57:33;2.03;;;1.50;;
52962;SDS011;38827;53.024;6.596;2023-08-06T16:00:02;2.10;;;1.60;;
52962;SDS011;38827;53.024;6.596;2023-08-06T16:02:28;1.73;;;1.25;;
52962;SDS011;38827;53.024;6.596;2023-08-06T16:04:55;2.53;;;1.47;;
52962;SDS011;38827;53.024;6.596;2023-08-06T16:07:21;2.22;;;1.38;;
52962;SDS011;38827;53.024;6.596;2023-08-06T16:09:49;2.42;;;1.25;;
52962;SDS011;38827;53.024;6.596;2023-08-06T16:12:16;1.98;;;1.30;;
52962;SDS011;38827;53.024;6.596;2023-08-06T16:14:44;2.40;;;1.55;;
52962;SDS011;38827;53.024;6.596;2023-08-06T16:17:10;1.75;;;1.50;;
52962;SDS011;38827;53.024;6.596;2023-08-06T16:19:36;1.40;;;1.30;;
52962;SDS011;38827;53.024;6.596;2023-08-06T16:22:02;1.50;;;1.37;;
52962;SDS011;38827;53.024;6.596;2023-08-06T16:36:01;2.65;;;1.50;;
52962;SDS011;38827;53.024;6.596;2023-08-06T16:54:28;3.08;;;1.98;;
52962;SDS011;38827;53.024;6.596;2023-08-06T16:57:00;2.47;;;1.67;;
52962;SDS011;38827;53.024;6.596;2023-08-06T16:59:26;2.63;;;1.80;;
52962;SDS011;38827;53.024;6.596;2023-08-06T17:02:26;2.85;;;1.98;;
52962;SDS011;38827;53.024;6.596;2023-08-06T17:07:39;3.47;;;1.85;;
52962;SDS011;38827;53.024;6.596;2023-08-06T17:10:36;2.97;;;1.75;;
52962;SDS011;38827;53.024;6.596;2023-08-06T17:13:14;3.90;;;1.70;;
52962;SDS011;38827;53.024;6.596;2023-08-06T17:15:41;2.47;;;1.67;;
52962;SDS011;38827;53.024;6.596;2023-08-06T17:18:29;4.63;;;2.10;;
52962;SDS011;38827;53.024;6.596;2023-08-06T17:20:59;2.50;;;1.87;;
52962;SDS011;38827;53.024;6.596;2023-08-06T17:23:55;2.53;;;1.45;;
52962;SDS011;38827;53.024;6.596;2023-08-06T17:26:28;3.65;;;1.80;;
52962;SDS011;38827;53.024;6.596;2023-08-06T17:42:42;2.15;;;1.52;;
52962;SDS011;38827;53.024;6.596;2023-08-06T17:51:14;4.07;;;2.25;;
52962;SDS011;38827;53.024;6.596;2023-08-06T17:53:52;5.13;;;2.40;;
52962;SDS011;38827;53.024;6.596;2023-08-06T17:59:06;5.90;;;2.33;;
52962;SDS011;38827;53.024;6.596;2023-08-06T18:01:50;4.10;;;2.60;;
52962;SDS011;38827;53.024;6.596;2023-08-06T18:04:25;3.47;;;2.33;;
52962;SDS011;38827;53.024;6.596;2023-08-06T18:25:43;4.13;;;1.77;;
52962;SDS011;38827;53.024;6.596;2023-08-06T18:34:33;2.10;;;1.90;;
52962;SDS011;38827;53.024;6.596;2023-08-06T18:36:59;2.47;;;1.80;;
52962;SDS011;38827;53.024;6.596;2023-08-06T18:40:08;5.60;;;2.10;;
52962;SDS011;38827;53.024;6.596;2023-08-06T18:42:43;2.42;;;1.77;;
52962;SDS011;38827;53.024;6.596;2023-08-06T18:55:27;6.65;;;1.90;;
52962;SDS011;38827;53.024;6.596;2023-08-06T18:58:08;3.47;;;2.10;;
52962;SDS011;38827;53.024;6.596;2023-08-06T19:03:22;4.20;;;2.30;;
52962;SDS011;38827;53.024;6.596;2023-08-06T19:05:51;4.28;;;2.25;;
52962;SDS011;38827;53.024;6.596;2023-08-06T19:08:17;4.28;;;2.22;;
52962;SDS011;38827;53.024;6.596;2023-08-06T19:17:05;4.93;;;2.80;;
52962;SDS011;38827;53.024;6.596;2023-08-06T19:19:31;5.03;;;3.08;;
52962;SDS011;38827;53.024;6.596;2023-08-06T19:22:00;5.53;;;3.47;;
52962;SDS011;38827;53.024;6.596;2023-08-06T19:24:26;6.07;;;3.30;;
52962;SDS011;38827;53.024;6.596;2023-08-06T19:26:52;4.75;;;2.80;;
52962;SDS011;38827;53.024;6.596;2023-08-06T19:29:18;6.55;;;3.05;;
52962;SDS011;38827;53.024;6.596;2023-08-06T19:31:43;7.03;;;2.67;;
52962;SDS011;38827;53.024;6.596;2023-08-06T19:36:41;3.93;;;2.60;;